Time;durP1;ratioP1;P1;durP2;ratioP2;P2;SDS_P1;SDS_P2;PMS_P1;PMS_P2;Temp;Humidity;BMP_temperature;BMP_pressure;BME280_temperature;BME280_humidity;BME280_pressure;Samples;Min_cycle;Max_cycle;Signal;HPM_P1;HPM_P2
2022/08/30 00:01:11;;;;;;;6.90;3.38;;;20.40;64.60;;;;;;5075597;28;20029;-74
2022/08/30 00:03:45;;;;;;;6.78;3.30;;;20.40;64.60;;;;;;5075520;28;20033;-73
2022/08/30 00:06:13;;;;;;;5.72;3.83;;;20.40;64.80;;;;;;5075540;28;20025;-74
2022/08/30 00:08:40;;;;;;;6.93;3.60;;;20.30;64.80;;;;;;5075447;28;20058;-74
2022/08/30 00:11:09;;;;;;;5.95;3.30;;;20.30;64.80;;;;;;5075402;28;20025;-74
2022/08/30 00:13:36;;;;;;;9.18;4.00;;;20.30;65.10;;;;;;5075357;28;20052;-74
2022/08/30 00:16:03;;;;;;;5.80;3.38;;;20.30;65.20;;;;;;5075278;28;20021;-74
2022/08/30 00:18:29;;;;;;;6.55;3.83;;;20.30;65.30;;;;;;5075143;28;20047;-74
2022/08/30 00:20:55;;;;;;;6.63;3.67;;;20.20;65.30;;;;;;5075185;28;20029;-74
2022/08/30 00:23:21;;;;;;;5.72;3.60;;;20.20;65.50;;;;;;5075175;28;20021;-74
2022/08/30 00:25:47;;;;;;;5.30;3.38;;;20.20;65.40;;;;;;5075111;28;20021;-74
2022/08/30 00:28:14;;;;;;;7.03;3.90;;;20.10;65.40;;;;;;5074984;28;20044;-74
2022/08/30 00:30:40;;;;;;;10.32;3.85;;;20.10;65.40;;;;;;5075172;28;20036;-74
2022/08/30 00:33:06;;;;;;;7.85;3.72;;;20.10;65.50;;;;;;5074014;28;20025;-74
2022/08/30 00:35:32;;;;;;;8.55;3.80;;;20.10;65.50;;;;;;5074946;28;20054;-74
2022/08/30 00:37:58;;;;;;;6.20;3.92;;;20.10;65.70;;;;;;5074822;28;20024;-74
2022/08/30 00:40:26;;;;;;;6.30;4.10;;;20.00;66.50;;;;;;5074818;28;20029;-74
2022/08/30 00:42:53;;;;;;;6.38;3.78;;;20.00;65.80;;;;;;5074805;28;20021;-74
2022/08/30 00:45:23;;;;;;;7.85;3.75;;;20.00;65.90;;;;;;5074695;28;20028;-74
2022/08/30 00:47:50;;;;;;;5.22;3.25;;;20.00;66.00;;;;;;5074849;28;20025;-74
2022/08/30 00:50:19;;;;;;;5.95;3.63;;;19.90;66.20;;;;;;5074650;28;20021;-74
2022/08/30 00:52:47;;;;;;;6.60;3.80;;;19.90;67.10;;;;;;5074635;28;20077;-74
2022/08/30 00:55:15;;;;;;;9.65;4.38;;;19.90;66.30;;;;;;5074534;28;20025;-74
2022/08/30 00:57:43;;;;;;;7.97;4.05;;;19.80;66.50;;;;;;5074204;28;20070;-74
2022/08/30 01:00:11;;;;;;;5.88;4.05;;;19.80;66.60;;;;;;5074436;28;20105;-74
2022/08/30 01:02:37;;;;;;;6.07;4.00;;;19.80;66.80;;;;;;5073416;28;20081;-74
2022/08/30 01:05:04;;;;;;;8.65;4.28;;;19.80;66.70;;;;;;5074363;28;20028;-74
2022/08/30 01:07:30;;;;;;;5.82;3.80;;;19.80;66.80;;;;;;5074268;28;20025;-74
2022/08/30 01:09:56;;;;;;;6.75;4.00;;;19.70;66.70;;;;;;5073185;28;20122;-74
2022/08/30 01:12:22;;;;;;;6.13;4.00;;;19.70;66.80;;;;;;5074230;28;20029;-74
2022/08/30 01:14:49;;;;;;;8.02;4.10;;;19.70;67.10;;;;;;5074130;28;20086;-74
2022/08/30 01:17:16;;;;;;;8.18;4.20;;;19.60;67.20;;;;;;5074038;28;20036;-74
2022/08/30 01:20:19;;;;;;;6.00;4.28;;;19.60;67.30;;;;;;5074068;28;20549;-74
2022/08/30 01:22:47;;;;;;;8.00;4.18;;;19.60;67.40;;;;;;5062867;28;20029;-74
2022/08/30 01:25:16;;;;;;;6.22;4.18;;;19.50;67.30;;;;;;5074090;28;20028;-74
2022/08/30 01:27:49;;;;;;;5.50;4.15;;;19.50;67.30;;;;;;5073935;28;20025;-74
2022/08/30 01:30:15;;;;;;;7.65;4.00;;;19.50;67.60;;;;;;5073866;28;20108;-74
2022/08/30 01:32:44;;;;;;;6.65;4.18;;;19.50;67.60;;;;;;5073833;28;20029;-74
2022/08/30 01:35:16;;;;;;;6.93;4.03;;;19.50;67.60;;;;;;5073779;28;20021;-74
2022/08/30 01:37:43;;;;;;;5.68;3.78;;;19.40;67.90;;;;;;5073583;28;20048;-74
2022/08/30 01:40:11;;;;;;;8.18;4.50;;;19.40;68.00;;;;;;5073692;28;20029;-74
2022/08/30 01:42:37;;;;;;;5.78;3.97;;;19.30;67.90;;;;;;5073784;28;20031;-74
2022/08/30 01:45:04;;;;;;;8.70;4.22;;;19.40;68.00;;;;;;5073598;28;20041;-74
2022/08/30 01:47:30;;;;;;;7.07;4.50;;;19.40;68.10;;;;;;5073565;28;20024;-74
2022/08/30 01:49:57;;;;;;;7.93;4.25;;;19.40;68.10;;;;;;5073535;28;20033;-74
2022/08/30 01:52:24;;;;;;;6.40;4.05;;;19.40;68.10;;;;;;5073538;28;20021;-74
2022/08/30 01:54:50;;;;;;;5.22;3.80;;;19.40;68.20;;;;;;5073447;28;20028;-74
2022/08/30 01:57:20;;;;;;;6.57;4.15;;;19.40;68.50;;;;;;5073201;28;20104;-74
2022/08/30 01:59:46;;;;;;;7.72;4.80;;;19.40;68.40;;;;;;5073425;28;20017;-74
2022/08/30 02:02:18;;;;;;;7.28;4.03;;;19.50;68.20;;;;;;5073366;28;20017;-74
2022/08/30 02:04:44;;;;;;;6.75;4.50;;;19.50;68.30;;;;;;5073411;28;20040;-74
2022/08/30 02:07:10;;;;;;;6.78;4.40;;;19.50;68.20;;;;;;5073301;28;20025;-74
2022/08/30 02:09:36;;;;;;;6.70;4.47;;;19.50;68.30;;;;;;5072359;28;20029;-74
2022/08/30 02:12:06;;;;;;;6.32;4.38;;;19.50;68.10;;;;;;5073268;28;20040;-74
2022/08/30 02:14:33;;;;;;;7.00;4.93;;;19.40;68.10;;;;;;5073265;28;20028;-74
2022/08/30 02:16:58;;;;;;;8.38;4.90;;;19.40;68.30;;;;;;5073117;28;20085;-74
2022/08/30 02:19:24;;;;;;;7.95;4.57;;;19.30;68.30;;;;;;5073209;28;20044;-74
2022/08/30 02:21:50;;;;;;;7.07;4.38;;;19.30;68.40;;;;;;5072596;28;20029;-74
2022/08/30 02:24:15;;;;;;;10.07;4.70;;;19.20;68.40;;;;;;5073112;28;20029;-74
2022/08/30 02:26:41;;;;;;;8.30;4.55;;;19.20;68.60;;;;;;5073111;28;20033;-74
2022/08/30 02:29:07;;;;;;;7.70;4.78;;;19.20;68.60;;;;;;5073030;28;20037;-74
2022/08/30 02:31:33;;;;;;;7.03;4.82;;;19.20;68.80;;;;;;5073178;28;20053;-74
2022/08/30 02:33:59;;;;;;;6.50;4.30;;;19.10;68.70;;;;;;5073021;28;20029;-74
2022/08/30 02:36:26;;;;;;;6.68;4.30;;;19.20;69.60;;;;;;5073031;28;20083;-74
2022/08/30 02:38:52;;;;;;;7.78;4.68;;;19.10;68.70;;;;;;5073079;28;20358;-74
2022/08/30 02:41:18;;;;;;;9.27;4.47;;;19.10;68.80;;;;;;5072946;28;20036;-74
2022/08/30 02:43:44;;;;;;;9.13;5.00;;;19.10;68.90;;;;;;5072932;28;20037;-74
2022/08/30 02:46:09;;;;;;;8.35;4.90;;;19.10;68.90;;;;;;5072911;28;20056;-74
2022/08/30 02:48:35;;;;;;;6.70;4.68;;;19.10;68.90;;;;;;5073015;28;20033;-74
2022/08/30 02:51:07;;;;;;;5.97;4.50;;;19.10;69.00;;;;;;5072886;28;20039;-74
2022/08/30 02:53:32;;;;;;;7.97;4.95;;;19.10;69.10;;;;;;5072740;28;20033;-74
2022/08/30 02:55:58;;;;;;;9.80;5.30;;;19.00;68.90;;;;;;5072811;28;20040;-74
2022/08/30 02:58:24;;;;;;;6.47;4.53;;;19.10;68.80;;;;;;5072663;28;20407;-74
2022/08/30 03:00:49;;;;;;;7.07;4.70;;;19.10;68.70;;;;;;5072893;28;20393;-74
2022/08/30 03:03:15;;;;;;;7.57;4.43;;;19.10;68.70;;;;;;5072873;28;20021;-74
2022/08/30 03:05:40;;;;;;;8.55;4.90;;;19.10;68.70;;;;;;5072717;28;20029;-74
2022/08/30 03:08:07;;;;;;;7.07;4.80;;;19.00;68.80;;;;;;5072716;28;20025;-74
2022/08/30 03:10:33;;;;;;;7.55;4.88;;;19.00;69.00;;;;;;5072686;28;20028;-74
2022/08/30 03:12:59;;;;;;;9.65;5.10;;;19.00;68.90;;;;;;5072657;28;20035;-74
2022/08/30 03:15:25;;;;;;;7.00;4.43;;;18.80;69.10;;;;;;5072641;28;20041;-74
2022/08/30 03:17:53;;;;;;;10.02;4.60;;;18.80;69.50;;;;;;5072521;28;20036;-74
2022/08/30 03:20:20;;;;;;;8.73;4.80;;;18.80;69.70;;;;;;5072583;28;20054;-74
2022/08/30 03:22:46;;;;;;;6.80;5.05;;;18.80;69.80;;;;;;5072599;28;20033;-74
2022/08/30 03:25:12;;;;;;;8.73;5.18;;;18.70;69.80;;;;;;5072573;28;20025;-74
2022/08/30 03:27:38;;;;;;;8.50;4.82;;;18.70;69.90;;;;;;5072466;28;20480;-74
2022/08/30 03:30:06;;;;;;;6.50;4.70;;;18.80;69.70;;;;;;5072609;28;20030;-74
2022/08/30 03:32:31;;;;;;;6.45;4.70;;;18.70;69.50;;;;;;5072451;28;20028;-74
2022/08/30 03:34:58;;;;;;;7.88;5.18;;;18.60;69.60;;;;;;5075645;28;20041;-74
2022/08/30 03:37:24;;;;;;;8.85;5.35;;;18.50;69.90;;;;;;5075965;28;20025;-74
2022/08/30 03:39:49;;;;;;;9.60;5.40;;;18.60;70.00;;;;;;5075977;28;20033;-74
2022/08/30 03:42:15;;;;;;;8.50;5.15;;;18.60;69.90;;;;;;5075936;28;20033;-74
2022/08/30 03:44:40;;;;;;;7.63;5.57;;;18.60;69.80;;;;;;5076007;28;20025;-74
2022/08/30 03:47:07;;;;;;;9.30;5.80;;;18.60;69.90;;;;;;5075841;28;20029;-74
2022/08/30 03:49:33;;;;;;;10.10;5.75;;;18.50;70.10;;;;;;5075801;28;20045;-74
2022/08/30 03:51:58;;;;;;;6.93;5.15;;;18.50;71.10;;;;;;5075737;28;20040;-74
2022/08/30 03:54:24;;;;;;;9.10;5.50;;;18.40;71.10;;;;;;5075695;28;20028;-74
2022/08/30 03:56:50;;;;;;;8.63;5.85;;;18.40;70.30;;;;;;5075374;28;20044;-74
2022/08/30 03:59:15;;;;;;;7.72;5.43;;;18.40;70.40;;;;;;5075616;28;20029;-74
2022/08/30 04:01:41;;;;;;;8.60;5.45;;;18.40;70.30;;;;;;5075562;28;20088;-74
2022/08/30 04:04:07;;;;;;;8.10;5.85;;;18.30;70.40;;;;;;5075532;28;20025;-74
2022/08/30 04:06:33;;;;;;;9.70;5.95;;;18.20;70.50;;;;;;5075487;28;20056;-74
2022/08/30 04:08:59;;;;;;;9.02;5.88;;;18.30;70.70;;;;;;5075438;28;20048;-74
2022/08/30 04:11:25;;;;;;;11.18;6.03;;;18.20;70.70;;;;;;5075392;28;20022;-74
2022/08/30 04:13:52;;;;;;;10.23;6.38;;;18.30;70.60;;;;;;5075348;28;20029;-74
2022/08/30 04:16:21;;;;;;;11.77;6.68;;;18.30;70.70;;;;;;5075263;28;20036;-74
2022/08/30 04:18:47;;;;;;;8.23;6.00;;;18.20;71.30;;;;;;5075163;28;20036;-74
2022/08/30 04:21:14;;;;;;;10.70;5.90;;;18.20;71.10;;;;;;5075196;28;20021;-74
2022/08/30 04:23:40;;;;;;;11.05;6.05;;;18.20;71.00;;;;;;5075151;28;20025;-74
2022/08/30 04:26:06;;;;;;;9.50;5.65;;;18.20;71.10;;;;;;5075105;28;20063;-74
2022/08/30 04:28:33;;;;;;;11.10;5.97;;;18.20;70.90;;;;;;5074992;28;20029;-74
2022/08/30 04:31:00;;;;;;;10.45;6.15;;;18.20;70.90;;;;;;5075010;28;20022;-74
2022/08/30 04:33:26;;;;;;;11.98;6.28;;;18.20;70.80;;;;;;5075025;28;20028;-74
2022/08/30 04:35:51;;;;;;;10.13;7.00;;;18.30;70.80;;;;;;5074922;28;20028;-74
2022/08/30 04:38:17;;;;;;;9.75;6.43;;;18.20;70.80;;;;;;5074842;28;20053;-74
2022/08/30 04:40:47;;;;;;;10.60;6.05;;;18.20;70.80;;;;;;5074833;28;20029;-74
2022/08/30 04:43:13;;;;;;;8.63;6.35;;;18.20;70.90;;;;;;5074793;28;20025;-74
2022/08/30 04:45:40;;;;;;;11.05;7.22;;;18.10;71.10;;;;;;5074262;28;20088;-74
2022/08/30 04:48:06;;;;;;;11.88;6.80;;;18.10;71.40;;;;;;5074692;28;20025;-74
2022/08/30 04:50:32;;;;;;;9.95;6.57;;;18.10;71.30;;;;;;5074672;28;20029;-74
2022/08/30 04:52:58;;;;;;;12.10;6.30;;;18.20;71.40;;;;;;5074543;28;20044;-74
2022/08/30 04:55:24;;;;;;;11.20;6.50;;;18.10;71.30;;;;;;5074536;28;20025;-74
2022/08/30 04:57:51;;;;;;;11.18;7.32;;;18.10;71.30;;;;;;5074273;28;20052;-74
2022/08/30 05:00:20;;;;;;;12.80;6.97;;;18.20;71.50;;;;;;5074607;28;20028;-74
2022/08/30 05:02:46;;;;;;;10.95;6.70;;;18.20;71.40;;;;;;5074390;28;20025;-74
2022/08/30 05:07:56;;;;;;;13.15;6.93;;;18.10;71.80;;;;;;5074388;28;20086;-74
2022/08/30 05:10:22;;;;;;;10.88;7.22;;;18.10;72.00;;;;;;5074283;28;20025;-74
2022/08/30 05:12:48;;;;;;;11.05;7.00;;;18.10;72.00;;;;;;5074194;28;20025;-74
2022/08/30 05:15:14;;;;;;;11.13;6.88;;;18.20;71.80;;;;;;5074143;28;20029;-73
2022/08/30 05:17:40;;;;;;;13.48;7.18;;;18.20;71.90;;;;;;5074048;28;20028;-74
2022/08/30 05:20:08;;;;;;;13.60;7.38;;;18.20;71.80;;;;;;5074090;28;20052;-74
2022/08/30 05:22:38;;;;;;;12.43;6.68;;;18.10;71.80;;;;;;5073970;28;20027;-74
2022/08/30 05:25:05;;;;;;;12.98;7.60;;;18.10;72.00;;;;;;5074034;28;20020;-74
2022/08/30 05:27:31;;;;;;;11.27;6.90;;;18.10;71.90;;;;;;5073951;28;20029;-74
2022/08/30 05:29:57;;;;;;;9.80;6.40;;;18.10;71.80;;;;;;5073871;28;20365;-74
2022/08/30 05:32:22;;;;;;;11.60;7.35;;;18.20;71.80;;;;;;5073859;28;20028;-74
2022/08/30 05:34:48;;;;;;;13.15;8.00;;;18.20;71.80;;;;;;5073968;28;20041;-74
2022/08/30 05:37:14;;;;;;;12.27;7.13;;;18.20;71.80;;;;;;5073773;28;20025;-74
2022/08/30 05:39:39;;;;;;;11.20;6.95;;;18.20;71.60;;;;;;5072705;28;20065;-74
2022/08/30 05:42:05;;;;;;;10.13;7.00;;;18.20;71.70;;;;;;5073689;28;20024;-73
2022/08/30 05:44:30;;;;;;;11.52;6.93;;;18.20;71.70;;;;;;5073656;28;20095;-74
2022/08/30 05:46:56;;;;;;;10.75;7.03;;;18.30;71.70;;;;;;5073651;28;20029;-73
2022/08/30 05:49:22;;;;;;;9.60;6.75;;;18.20;71.80;;;;;;5073542;28;20029;-74
2022/08/30 05:51:48;;;;;;;10.70;6.50;;;18.20;72.20;;;;;;5073523;28;20029;-74
2022/08/30 05:54:15;;;;;;;12.52;6.93;;;18.10;72.20;;;;;;5073509;28;20047;-73
2022/08/30 05:56:44;;;;;;;11.75;6.70;;;18.20;72.20;;;;;;5072712;28;20163;-74
2022/08/30 05:59:10;;;;;;;11.70;6.75;;;18.20;72.30;;;;;;5073346;28;20041;-74
2022/08/30 06:01:38;;;;;;;9.63;6.63;;;18.20;72.20;;;;;;5073390;28;20018;-74
2022/08/30 06:04:06;;;;;;;10.88;6.70;;;18.20;72.10;;;;;;5073346;28;20028;-74
2022/08/30 06:06:34;;;;;;;9.95;6.60;;;18.30;72.20;;;;;;5073343;28;20021;-73
2022/08/30 06:09:00;;;;;;;12.13;6.78;;;18.20;72.20;;;;;;5073281;28;20025;-74
2022/08/30 06:11:26;;;;;;;9.45;6.22;;;18.20;72.10;;;;;;5073215;28;20036;-74
2022/08/30 06:13:53;;;;;;;11.02;6.53;;;18.30;72.20;;;;;;5073255;28;20052;-74
2022/08/30 06:16:21;;;;;;;9.27;5.97;;;18.30;72.20;;;;;;5073205;28;20033;-73
2022/08/30 06:18:47;;;;;;;10.10;6.43;;;18.30;72.00;;;;;;5072148;28;20112;-73
2022/08/30 06:21:33;;;;;;;9.10;6.10;;;18.30;71.80;;;;;;5072239;28;20060;-73
2022/08/30 06:24:01;;;;;;;9.65;6.15;;;18.30;71.70;;;;;;5073076;28;20024;-73
2022/08/30 06:26:28;;;;;;;11.75;6.45;;;18.30;71.90;;;;;;5073035;28;20048;-73
2022/08/30 06:28:54;;;;;;;10.52;6.07;;;18.30;71.90;;;;;;5072982;28;20028;-74
2022/08/30 06:31:22;;;;;;;9.27;6.18;;;18.40;72.00;;;;;;5073122;28;20025;-74
2022/08/30 06:33:48;;;;;;;12.82;6.50;;;18.40;72.00;;;;;;5073043;28;20077;-74
2022/08/30 06:36:18;;;;;;;9.13;6.40;;;18.40;71.90;;;;;;5072996;28;20101;-74
2022/08/30 06:38:44;;;;;;;9.23;6.20;;;18.40;71.90;;;;;;5072903;28;20018;-74
2022/08/30 06:41:15;;;;;;;11.27;6.30;;;18.50;72.00;;;;;;5072988;28;20108;-74
2022/08/30 06:43:41;;;;;;;7.68;5.60;;;18.50;71.90;;;;;;5073016;28;20025;-74
2022/08/30 06:46:09;;;;;;;9.63;6.00;;;18.60;71.80;;;;;;5072908;28;20025;-74
2022/08/30 06:48:35;;;;;;;12.00;5.95;;;18.60;71.80;;;;;;5072999;28;20025;-74
2022/08/30 06:51:00;;;;;;;9.23;6.20;;;18.60;71.70;;;;;;5072847;28;20040;-74
2022/08/30 06:53:28;;;;;;;9.38;6.10;;;18.70;71.60;;;;;;5072872;28;20088;-74
2022/08/30 06:55:55;;;;;;;9.38;5.68;;;18.70;71.50;;;;;;5072836;28;20025;-74
2022/08/30 06:58:21;;;;;;;9.93;5.88;;;18.70;71.40;;;;;;5072583;28;20037;-74
2022/08/30 07:00:47;;;;;;;8.60;5.88;;;18.70;71.40;;;;;;5072789;28;20055;-74
2022/08/30 07:03:12;;;;;;;10.18;6.03;;;18.80;71.50;;;;;;5072753;28;20061;-74
2022/08/30 07:05:38;;;;;;;8.00;5.15;;;18.70;71.50;;;;;;5072743;28;20029;-73
2022/08/30 07:08:03;;;;;;;12.65;5.97;;;18.80;71.40;;;;;;5074706;28;20040;-74
2022/08/30 07:10:30;;;;;;;7.30;5.65;;;18.80;71.20;;;;;;5076562;28;20025;-74
2022/08/30 07:12:55;;;;;;;8.73;5.03;;;18.90;71.20;;;;;;5076473;28;20017;-74
2022/08/30 07:15:21;;;;;;;8.60;5.15;;;18.90;71.30;;;;;;5076464;28;20083;-73
2022/08/30 07:20:32;;;;;;;7.60;5.10;;;19.10;71.10;;;;;;5076607;28;20040;-74
2022/08/30 07:22:58;;;;;;;6.22;4.53;;;19.10;71.10;;;;;;5076483;28;20029;-74
2022/08/30 07:25:24;;;;;;;6.78;4.50;;;19.20;70.90;;;;;;5076293;28;20040;-74
2022/08/30 07:27:50;;;;;;;6.68;4.18;;;19.20;70.60;;;;;;5076229;28;20033;-74
2022/08/30 07:30:17;;;;;;;8.05;4.30;;;19.30;70.60;;;;;;5076100;28;20018;-74
2022/08/30 07:32:43;;;;;;;5.28;3.97;;;19.30;70.50;;;;;;5076168;28;20029;-74
2022/08/30 07:35:09;;;;;;;8.27;4.30;;;19.50;70.30;;;;;;5076099;28;20112;-74
2022/08/30 07:37:35;;;;;;;5.95;4.05;;;19.50;70.10;;;;;;5076024;28;20033;-74
2022/08/30 07:40:02;;;;;;;7.28;4.20;;;19.60;69.90;;;;;;5076023;28;20029;-74
2022/08/30 07:42:28;;;;;;;6.07;3.63;;;19.70;69.20;;;;;;5075851;28;20102;-74
2022/08/30 07:44:54;;;;;;;5.82;3.70;;;19.70;68.90;;;;;;5075947;28;20029;-74
2022/08/30 07:47:19;;;;;;;4.20;3.15;;;19.80;68.80;;;;;;5075876;28;20037;-74
2022/08/30 07:49:45;;;;;;;5.82;2.88;;;19.90;68.50;;;;;;5075857;28;20033;-74
2022/08/30 07:52:11;;;;;;;5.03;3.03;;;20.00;68.40;;;;;;5075800;28;20032;-74
2022/08/30 07:54:36;;;;;;;4.57;2.70;;;20.00;68.00;;;;;;5075722;28;20029;-74
2022/08/30 07:57:02;;;;;;;5.18;3.00;;;20.10;67.80;;;;;;5075355;28;20049;-74
2022/08/30 07:59:28;;;;;;;4.15;2.55;;;20.20;67.40;;;;;;5075599;28;20059;-74
2022/08/30 08:01:53;;;;;;;6.07;2.90;;;20.30;67.20;;;;;;5075593;28;20021;-74
2022/08/30 08:04:19;;;;;;;4.50;2.63;;;20.40;66.80;;;;;;5075526;28;20022;-74
2022/08/30 08:06:45;;;;;;;3.60;2.40;;;20.40;66.40;;;;;;5075529;28;20029;-74
2022/08/30 08:09:11;;;;;;;3.60;2.60;;;20.50;65.60;;;;;;5075464;28;20040;-74
2022/08/30 08:11:36;;;;;;;4.57;2.92;;;20.60;65.50;;;;;;5075435;28;20079;-74
2022/08/30 08:14:03;;;;;;;3.50;2.25;;;20.70;65.10;;;;;;5075372;28;20048;-73
2022/08/30 08:16:31;;;;;;;3.63;2.70;;;20.70;65.30;;;;;;5074331;28;20043;-74
2022/08/30 08:18:57;;;;;;;3.08;2.10;;;20.80;66.00;;;;;;5074410;28;20090;-74
2022/08/30 08:21:24;;;;;;;6.00;2.53;;;20.90;63.90;;;;;;5075253;28;20025;-74
2022/08/30 08:23:50;;;;;;;3.63;2.10;;;20.90;64.10;;;;;;5075174;28;20021;-74
2022/08/30 08:26:16;;;;;;;2.65;2.05;;;21.00;63.80;;;;;;5075290;28;20025;-74
2022/08/30 08:28:42;;;;;;;4.22;2.25;;;21.00;63.50;;;;;;5075025;28;20036;-74
2022/08/30 08:31:34;;;;;;;4.63;2.47;;;21.00;63.20;;;;;;5075099;28;20029;-74
2022/08/30 08:34:04;;;;;;;3.20;2.20;;;21.10;62.80;;;;;;5074101;28;20052;-74
2022/08/30 08:36:32;;;;;;;4.60;2.53;;;21.10;63.20;;;;;;5074936;28;20033;-74
2022/08/30 08:38:58;;;;;;;6.07;2.75;;;21.10;62.60;;;;;;5074859;28;20017;-74
2022/08/30 08:41:26;;;;;;;3.17;1.98;;;21.20;62.80;;;;;;5074900;28;20029;-74
2022/08/30 08:43:52;;;;;;;4.82;2.22;;;21.30;62.90;;;;;;5074838;28;20032;-74
2022/08/30 08:46:39;;;;;;;4.03;2.08;;;21.40;62.70;;;;;;5074800;28;20029;-74
2022/08/30 08:49:07;;;;;;;3.88;2.15;;;21.40;61.70;;;;;;5074784;28;20380;-74
2022/08/30 08:54:43;;;;;;;3.85;1.77;;;21.50;61.70;;;;;;5074890;28;20071;-74
2022/08/30 08:57:09;;;;;;;4.50;1.98;;;21.60;61.90;;;;;;5074543;28;20029;-73
2022/08/30 08:59:36;;;;;;;3.00;2.00;;;21.80;61.90;;;;;;5074412;28;20045;-74
2022/08/30 09:02:25;;;;;;;3.65;1.98;;;21.90;61.70;;;;;;5074448;28;20104;-74
2022/08/30 09:04:54;;;;;;;3.78;2.20;;;21.90;60.60;;;;;;5074489;28;20032;-74
2022/08/30 09:07:35;;;;;;;3.35;2.05;;;21.90;59.30;;;;;;5074361;28;20047;-74
2022/08/30 09:10:02;;;;;;;4.82;1.92;;;21.90;59.80;;;;;;5074357;28;20025;-73
2022/08/30 09:12:28;;;;;;;3.45;1.70;;;22.00;60.20;;;;;;5056877;28;20024;-73
2022/08/30 09:15:00;;;;;;;3.15;1.70;;;22.00;60.10;;;;;;5073269;28;20029;-74
2022/08/30 09:17:25;;;;;;;3.90;1.80;;;22.10;59.00;;;;;;5073169;28;20031;-73
2022/08/30 09:19:51;;;;;;;4.05;1.60;;;22.20;58.50;;;;;;5074137;28;20074;-73
2022/08/30 09:22:32;;;;;;;3.47;1.50;;;22.30;59.30;;;;;;5074105;28;20053;-73
2022/08/30 09:25:13;;;;;;;2.72;1.52;;;22.40;59.40;;;;;;5074241;28;20021;-74
2022/08/30 09:27:47;;;;;;;2.90;1.80;;;22.50;58.20;;;;;;5074140;28;20025;-74
2022/08/30 09:30:23;;;;;;;3.10;1.58;;;22.60;58.40;;;;;;5074053;28;20028;-74
2022/08/30 09:32:49;;;;;;;2.75;1.70;;;22.60;57.80;;;;;;5074105;28;20040;-74
2022/08/30 09:35:22;;;;;;;4.38;1.65;;;22.70;57.70;;;;;;5073888;28;20031;-73
2022/08/30 09:37:55;;;;;;;3.08;1.80;;;22.80;57.20;;;;;;5072672;28;20047;-73
2022/08/30 09:40:35;;;;;;;4.93;1.50;;;22.80;57.10;;;;;;5073917;28;20032;-74
2022/08/30 09:43:16;;;;;;;2.20;1.45;;;22.90;56.00;;;;;;5073752;28;20021;-74
2022/08/30 09:46:09;;;;;;;1.75;1.30;;;23.00;56.20;;;;;;5073694;28;20021;-74
2022/08/30 09:48:39;;;;;;;3.03;1.60;;;23.10;57.10;;;;;;5073603;28;20037;-74
2022/08/30 09:51:10;;;;;;;6.28;2.22;;;23.10;56.20;;;;;;5073650;28;20021;-74
2022/08/30 09:54:10;;;;;;;2.42;1.33;;;23.30;56.10;;;;;;5073565;28;20029;-74
2022/08/30 09:56:53;;;;;;;2.78;1.35;;;23.40;55.20;;;;;;5073581;28;20025;-74
2022/08/30 10:00:01;;;;;;;4.70;1.30;;;23.40;55.20;;;;;;5073272;28;20108;-74
2022/08/30 10:02:50;;;;;;;3.40;1.45;;;23.50;55.50;;;;;;5073471;28;20049;-74
2022/08/30 10:05:23;;;;;;;3.83;1.40;;;23.50;54.30;;;;;;5073569;28;20017;-74
2022/08/30 10:08:08;;;;;;;3.13;1.30;;;23.40;54.70;;;;;;5073445;28;20024;-74
2022/08/30 10:10:40;;;;;;;2.35;1.33;;;23.50;53.50;;;;;;5073321;28;20025;-74
2022/08/30 10:13:33;;;;;;;2.58;1.50;;;23.40;54.20;;;;;;5073349;28;20049;-74
2022/08/30 10:16:29;;;;;;;3.85;1.48;;;23.60;54.40;;;;;;5072286;28;20210;-74
2022/08/30 10:19:03;;;;;;;2.40;1.20;;;23.60;53.90;;;;;;5073198;28;20033;-74
2022/08/30 10:21:44;;;;;;;3.85;1.30;;;23.70;53.80;;;;;;5073245;28;20025;-74
2022/08/30 10:24:13;;;;;;;2.28;1.30;;;23.70;53.00;;;;;;5073202;28;20077;-74
2022/08/30 10:26:47;;;;;;;3.92;1.40;;;23.70;53.20;;;;;;5073182;28;20044;-74
2022/08/30 10:29:36;;;;;;;2.33;1.40;;;23.70;53.00;;;;;;5073093;28;20085;-74
2022/08/30 10:32:10;;;;;;;2.92;1.50;;;23.70;53.60;;;;;;5073237;28;20025;-74
2022/08/30 10:34:40;;;;;;;2.42;1.70;;;23.80;53.10;;;;;;5073103;28;20036;-74
2022/08/30 10:37:22;;;;;;;3.95;1.50;;;23.70;51.30;;;;;;5073143;28;20028;-74
2022/08/30 10:39:57;;;;;;;1.67;1.10;;;23.70;52.20;;;;;;5073256;28;20024;-74
2022/08/30 10:42:32;;;;;;;1.70;1.38;;;23.80;52.90;;;;;;5073019;28;20476;-74
2022/08/30 10:45:10;;;;;;;1.63;1.30;;;23.90;52.50;;;;;;5077297;28;20104;-74
2022/08/30 10:48:01;;;;;;;3.63;1.52;;;24.10;53.10;;;;;;5077075;28;20036;-74
2022/08/30 10:50:41;;;;;;;3.13;1.40;;;24.30;51.40;;;;;;5077063;28;20029;-74
2022/08/30 10:53:14;;;;;;;3.25;1.40;;;24.30;51.40;;;;;;5076823;28;20044;-74
2022/08/30 10:56:05;;;;;;;3.28;1.38;;;24.40;51.60;;;;;;5076941;28;20072;-74
2022/08/30 10:58:31;;;;;;;2.90;1.70;;;24.60;51.10;;;;;;5076506;28;20049;-74
2022/08/30 11:01:08;;;;;;;3.92;1.45;;;24.70;52.40;;;;;;5075776;28;20029;-73
2022/08/30 11:03:48;;;;;;;3.75;1.50;;;24.90;50.60;;;;;;5076789;28;20029;-73
2022/08/30 11:06:38;;;;;;;4.38;1.27;;;25.00;49.30;;;;;;5076890;28;20032;-73
2022/08/30 11:09:38;;;;;;;1.40;1.23;;;25.00;48.30;;;;;;5076643;28;20089;-73
2022/08/30 11:12:34;;;;;;;2.28;1.50;;;25.00;48.80;;;;;;5076744;28;20029;-73
2022/08/30 11:15:13;;;;;;;3.25;1.25;;;25.10;47.50;;;;;;5076585;28;20029;-74
2022/08/30 11:17:53;;;;;;;3.60;1.25;;;25.20;48.30;;;;;;5076444;28;20074;-73
2022/08/30 11:20:44;;;;;;;2.05;1.17;;;25.20;48.20;;;;;;5076467;28;20021;-73
2022/08/30 11:23:32;;;;;;;2.05;1.27;;;25.30;47.50;;;;;;5075390;28;20025;-73
2022/08/30 11:26:08;;;;;;;1.80;1.13;;;25.50;47.60;;;;;;5075336;28;20048;-74
2022/08/30 11:28:36;;;;;;;2.38;1.63;;;25.50;47.00;;;;;;5076325;28;20024;-73
2022/08/30 11:31:10;;;;;;;3.70;1.20;;;25.60;46.90;;;;;;5076239;28;20119;-73
2022/08/30 11:33:50;;;;;;;2.83;1.13;;;25.60;45.40;;;;;;5075305;28;20036;-73
2022/08/30 11:36:40;;;;;;;3.65;1.40;;;25.60;46.10;;;;;;5076190;28;20028;-73
2022/08/30 11:39:28;;;;;;;3.17;1.00;;;25.70;45.80;;;;;;5073112;28;20032;-73
2022/08/30 11:42:30;;;;;;;3.22;1.70;;;25.80;46.30;;;;;;5074666;28;20048;-73
2022/08/30 11:45:26;;;;;;;3.35;1.50;;;25.80;44.20;;;;;;5076045;28;20029;-73
2022/08/30 11:47:56;;;;;;;2.42;1.25;;;25.90;45.20;;;;;;5071272;28;20037;-73
2022/08/30 11:50:34;;;;;;;3.97;1.25;;;25.80;44.00;;;;;;5074918;28;20032;-73
2022/08/30 11:53:36;;;;;;;1.60;1.00;;;25.80;44.60;;;;;;5075826;28;20027;-74
2022/08/30 11:56:19;;;;;;;1.95;1.08;;;25.90;44.80;;;;;;5068573;28;20037;-73
2022/08/30 11:58:48;;;;;;;4.50;1.55;;;25.90;45.30;;;;;;5075516;28;20045;-73
2022/08/30 12:01:35;;;;;;;2.88;1.30;;;26.00;45.00;;;;;;5075805;28;20028;-73
2022/08/30 12:04:02;;;;;;;3.60;1.45;;;26.10;42.70;;;;;;5075687;28;20036;-73
2022/08/30 12:06:40;;;;;;;7.18;1.35;;;26.00;43.80;;;;;;5075577;28;20100;-73
2022/08/30 12:09:27;;;;;;;2.35;1.13;;;26.10;43.60;;;;;;5075540;28;20025;-73
2022/08/30 12:12:03;;;;;;;2.03;1.17;;;26.10;44.60;;;;;;5064446;28;20053;-73
2022/08/30 12:14:51;;;;;;;4.90;1.17;;;26.10;43.80;;;;;;5075418;28;20032;-73
2022/08/30 12:20:37;;;;;;;3.20;1.10;;;26.30;43.50;;;;;;5075038;28;20028;-73
2022/08/30 12:23:18;;;;;;;2.85;1.10;;;26.40;43.80;;;;;;5075325;28;20025;-73
2022/08/30 12:25:45;;;;;;;3.03;1.30;;;26.50;42.70;;;;;;5075316;28;20021;-73
2022/08/30 12:28:21;;;;;;;5.05;1.25;;;26.40;42.60;;;;;;5075121;28;20461;-73
2022/08/30 12:30:47;;;;;;;1.73;1.23;;;26.40;42.50;;;;;;5074189;28;20024;-73
2022/08/30 12:33:22;;;;;;;3.58;1.25;;;26.40;43.70;;;;;;5074107;28;20021;-73
2022/08/30 12:35:48;;;;;;;4.07;1.35;;;26.40;42.20;;;;;;5075071;28;20080;-73
2022/08/30 12:38:18;;;;;;;3.08;1.38;;;26.50;42.30;;;;;;5074890;28;20052;-73
2022/08/30 12:40:56;;;;;;;2.58;1.27;;;26.50;42.70;;;;;;5075005;28;20117;-73
2022/08/30 12:43:45;;;;;;;1.17;0.93;;;26.60;42.00;;;;;;5074861;28;20021;-73
2022/08/30 12:46:14;;;;;;;5.80;1.40;;;26.70;42.30;;;;;;5075020;28;20013;-73
2022/08/30 12:48:40;;;;;;;3.25;1.52;;;26.70;41.90;;;;;;5074772;28;20025;-73
2022/08/30 12:51:09;;;;;;;4.70;1.60;;;26.80;42.90;;;;;;5074730;28;20036;-73
2022/08/30 12:53:40;;;;;;;3.42;1.13;;;26.80;41.00;;;;;;5074699;28;20021;-73
2022/08/30 12:56:08;;;;;;;4.18;1.30;;;26.90;41.10;;;;;;5074739;28;20084;-73
2022/08/30 12:58:42;;;;;;;1.90;1.00;;;27.00;40.90;;;;;;5074376;28;20076;-73
2022/08/30 13:01:37;;;;;;;3.50;1.25;;;27.00;41.60;;;;;;5074584;28;20051;-73
2022/08/30 13:04:21;;;;;;;3.60;1.20;;;27.00;40.80;;;;;;5069839;28;20036;-73
2022/08/30 13:06:49;;;;;;;7.10;1.65;;;27.10;40.80;;;;;;5074125;28;20025;-73
2022/08/30 13:09:32;;;;;;;2.20;1.20;;;27.10;40.90;;;;;;5074369;28;20097;-73
2022/08/30 13:12:03;;;;;;;3.60;1.15;;;27.10;40.30;;;;;;5074346;28;20029;-73
2022/08/30 13:14:41;;;;;;;1.90;1.20;;;27.10;40.00;;;;;;5074467;28;20028;-73